CheckWX is a tool to help pilots better visualize weather data.  It is not intended as a substitute for an official pre-flight weather briefing.

22:43:43 UTC

KPIE TAF
St Pete-Clearwater International Airport
Clearwater, Florida, USA
KPIE 191724Z 1918/2018 18020G30KT P6SM VCSH FEW025 BKN035 OVC100 FM200000 22012G17KT P6SM BKN050 BKN100 FM200300 22009KT P6SM BKN050 FM200900 23007KT P6SM SCT050 FM201500 28009KT P6SM SCT040

Oct-19@
18:00 UTC

Oct-19 @ 18:00 UTC

Oct-20@
00:00 UTC

Oct-20 @ 00:00 UTC

KPIE 191724Z 1918/2018 18020G30KT P6SM VCSH FEW025 BKN035 OVC100
Wind
  • 180° at 20 KTS
  • {Gusting to 30 KTS
Cloud Levels
  • Few at 2,500' AGL
  • Broken at 3,500' AGL
  • Overcast at 10,000' AGL

Oct-20@
00:00 UTC

Oct-20 @ 00:00 UTC

Oct-20@
03:00 UTC

Oct-20 @ 03:00 UTC

FM200000 22012G17KT P6SM BKN050 BKN100

From

From Standard forecast or significant change

Wind
  • 220° at 12 KTS
  • {Gusting to 17 KTS
Cloud Levels
  • Broken at 5,000' AGL
  • Broken at 10,000' AGL

Oct-20@
03:00 UTC

Oct-20 @ 03:00 UTC

Oct-20@
09:00 UTC

Oct-20 @ 09:00 UTC

FM200300 22009KT P6SM BKN050

From

From Standard forecast or significant change

Wind
  • 220° at 9 KTS
Cloud Levels
  • Broken at 5,000' AGL

Oct-20@
09:00 UTC

Oct-20 @ 09:00 UTC

Oct-20@
15:00 UTC

Oct-20 @ 15:00 UTC

FM200900 23007KT P6SM SCT050

From

From Standard forecast or significant change

Wind
  • 230° at 7 KTS
Cloud Levels
  • Scattered at 5,000' AGL

Oct-20@
15:00 UTC

Oct-20 @ 15:00 UTC

Oct-20@
18:00 UTC

Oct-20 @ 18:00 UTC

FM201500 28009KT P6SM SCT040

From

From Standard forecast or significant change

Wind
  • 280° at 9 KTS
Cloud Levels
  • Scattered at 4,000' AGL